createdAt,value
2022-08-22T00:00:55.544Z,100217.13
2022-08-22T00:02:42.866Z,100371.72
2022-08-22T00:02:48.496Z,100368.72
2022-08-22T00:03:03.866Z,100366.28
2022-08-22T00:03:35.724Z,100229.44
2022-08-22T00:06:15.764Z,100238.19
2022-08-22T00:08:58.727Z,100253.03
2022-08-22T00:11:36.921Z,100251.34
2022-08-22T00:14:15.910Z,100240.13
2022-08-22T00:16:56.394Z,100235.78
2022-08-22T00:19:31.395Z,100222.63
2022-08-22T00:22:07.051Z,100212.09
2022-08-22T00:24:47.335Z,100220.88
2022-08-22T00:27:22.884Z,100228.75
2022-08-22T00:29:52.739Z,100232.22
2022-08-22T00:32:28.865Z,100228.75
2022-08-22T00:35:02.984Z,100225.25
2022-08-22T00:37:36.544Z,100219.31
2022-08-22T00:40:25.514Z,100208.91
2022-08-22T00:43:27.374Z,100201.97
2022-08-22T00:46:30.374Z,100199.47
2022-08-22T00:49:17.824Z,100187.25
2022-08-22T00:52:19.859Z,100195.31
2022-08-22T00:55:03.789Z,100185.72
2022-08-22T00:58:11.224Z,100177.81
2022-08-22T01:00:46.259Z,100181.31
2022-08-22T01:03:30.344Z,100173.41
2022-08-22T01:06:14.935Z,100161.31
2022-08-22T01:09:04.274Z,100165.84
2022-08-22T01:12:00.334Z,100171.00
2022-08-22T01:14:41.196Z,100183.19
2022-08-22T01:18:07.654Z,100194.81
2022-08-22T01:21:28.584Z,100194.81
2022-08-22T01:24:32.747Z,100182.63
2022-08-22T01:27:38.775Z,100176.63
2022-08-22T01:30:20.204Z,100169.56
2022-08-22T01:33:25.555Z,100155.59
2022-08-22T01:36:29.214Z,100145.19
2022-08-22T01:39:33.224Z,100149.50
2022-08-22T01:42:26.223Z,100140.88
2022-08-22T01:45:14.053Z,100132.03
2022-08-22T01:47:50.024Z,100128.81
2022-08-22T01:50:30.825Z,100125.34
2022-08-22T01:53:06.574Z,100127.88
2022-08-22T01:55:41.634Z,100122.72
2022-08-22T01:58:20.714Z,100121.88
2022-08-22T02:01:14.562Z,100124.53
2022-08-22T02:03:57.709Z,100128.13
2022-08-22T02:06:37.733Z,100122.97
2022-08-22T02:09:14.807Z,100119.50
2022-08-22T02:11:49.444Z,100130.88
2022-08-22T02:14:40.513Z,100123.94
2022-08-22T02:17:21.824Z,100124.78
2022-08-22T02:20:01.439Z,100134.47
2022-08-22T02:22:44.927Z,100123.94
2022-08-22T02:25:21.433Z,100117.03
2022-08-22T02:27:57.947Z,100112.69
2022-08-22T02:30:44.688Z,100111.88
2022-08-22T02:33:23.314Z,100122.41
2022-08-22T02:35:58.145Z,100121.44
2022-08-22T02:38:34.204Z,100133.63
2022-08-22T02:41:14.189Z,100127.53
2022-08-22T02:43:51.163Z,100100.53
2022-08-22T02:46:28.064Z,100088.34
2022-08-22T02:49:05.816Z,100087.63
2022-08-22T02:51:41.743Z,100091.91
2022-08-22T02:54:19.558Z,100089.28
2022-08-22T02:56:54.974Z,100086.66
2022-08-22T02:59:36.993Z,100088.34
2022-08-22T03:02:36.294Z,100083.19
2022-08-22T03:05:19.728Z,100079.72
2022-08-22T03:07:57.101Z,100075.44
2022-08-22T03:10:31.985Z,100085.13
2022-08-22T03:13:09.076Z,100087.75
2022-08-22T03:15:48.444Z,100086.91
2022-08-22T03:18:24.145Z,100085.13
2022-08-22T03:20:56.066Z,100084.28
2022-08-22T03:23:35.901Z,100086.78
2022-08-22T03:26:14.004Z,100080.94
2022-08-22T03:28:59.471Z,100072.09
2022-08-22T03:31:32.286Z,100070.44
2022-08-22T03:34:30.854Z,100070.44
2022-08-22T03:37:09.304Z,100073.88
2022-08-22T03:39:49.260Z,100063.63
2022-08-22T03:43:01.994Z,100053.94
2022-08-22T03:46:14.774Z,100050.59
2022-08-22T03:49:03.484Z,100054.06
2022-08-22T03:51:41.935Z,100053.22
2022-08-22T03:54:36.525Z,100040.22
2022-08-22T03:57:36.503Z,100037.72
2022-08-22T04:00:15.926Z,100036.59
2022-08-22T04:03:23.139Z,100034.13
2022-08-22T04:06:27.525Z,100036.75
2022-08-22T04:09:26.757Z,100027.19
2022-08-22T04:12:27.814Z,100023.84
2022-08-22T04:15:33.755Z,100022.88
2022-08-22T04:18:19.814Z,100015.13
2022-08-22T04:21:23.663Z,100012.50
2022-08-22T04:24:12.205Z,100012.50
2022-08-22T04:26:46.524Z,100015.13
2022-08-22T04:29:21.033Z,100019.56
2022-08-22T04:31:55.364Z,100015.97
2022-08-22T04:34:30.144Z,100016.94
2022-08-22T04:37:02.734Z,100012.50
2022-08-22T04:39:40.483Z,100004.72
2022-08-22T04:42:32.300Z,100013.44
2022-08-22T04:45:07.463Z,100013.59
2022-08-22T04:47:41.742Z,100011.69
2022-08-22T04:50:21.374Z,100010.97
2022-08-22T04:53:14.129Z,100011.78
2022-08-22T04:55:53.447Z,100008.19
2022-08-22T04:58:34.572Z,100006.66
2022-08-22T05:01:13.768Z,100012.03
2022-08-22T05:03:51.054Z,100012.75
2022-08-22T05:06:23.654Z,100004.72
2022-08-22T05:08:53.932Z,100012.03
2022-08-22T05:11:25.929Z,100005.81
2022-08-22T05:13:57.964Z,100004.16
2022-08-22T05:16:29.896Z,99998.91
2022-08-22T05:19:06.237Z,100004.28
2022-08-22T05:21:39.724Z,100010.13
2022-08-22T05:24:12.258Z,100011.94
2022-08-22T05:26:46.908Z,100019.09
2022-08-22T05:29:20.429Z,100002.59
2022-08-22T05:31:53.234Z,100010.97
2022-08-22T05:34:26.473Z,100010.25
2022-08-22T05:36:59.173Z,100012.03
2022-08-22T05:39:30.083Z,100003.59
2022-08-22T05:42:04.016Z,100005.38
2022-08-22T05:44:34.824Z,100006.94
2022-08-22T05:47:05.623Z,100006.22
2022-08-22T05:49:39.754Z,100005.38
2022-08-22T05:52:17.938Z,100013.13
2022-08-22T05:54:54.584Z,100001.06
2022-08-22T05:57:30.436Z,100003.84
2022-08-22T06:00:05.243Z,99996.78
2022-08-22T06:02:49.864Z,99991.41
2022-08-22T06:05:26.203Z,99993.06
2022-08-22T06:08:00.099Z,99993.19
2022-08-22T06:10:36.205Z,99994.97
2022-08-22T06:13:12.008Z,99995.94
2022-08-22T06:15:48.684Z,99995.94
2022-08-22T06:18:22.376Z,99995.81
2022-08-22T06:20:54.838Z,99990.53
2022-08-22T06:23:28.560Z,99991.50
2022-08-22T06:26:01.446Z,99996.06
2022-08-22T06:28:38.164Z,99996.91
2022-08-22T06:31:27.399Z,99987.22
2022-08-22T06:34:00.549Z,99984.59
2022-08-22T06:36:32.349Z,99986.41
2022-08-22T06:39:12.930Z,99981.16
2022-08-22T06:41:46.530Z,99985.53
2022-08-22T06:44:20.178Z,99981.00
2022-08-22T06:46:52.351Z,99982.53
2022-08-22T06:49:24.470Z,99983.53
2022-08-22T06:51:53.799Z,99992.91
2022-08-22T06:54:26.531Z,99987.66
2022-08-22T06:56:56.719Z,99996.53
2022-08-22T06:59:30.549Z,99988.63
2022-08-22T07:02:07.343Z,99997.34
2022-08-22T07:04:35.989Z,99992.22
2022-08-22T07:07:04.470Z,100000.94
2022-08-22T07:09:36.109Z,100003.59
2022-08-22T07:12:12.249Z,99999.97
2022-08-22T07:14:44.830Z,100002.59
2022-08-22T07:17:18.969Z,100002.59
2022-08-22T07:19:55.729Z,100000.81
2022-08-22T07:22:26.830Z,99998.06
2022-08-22T07:24:58.879Z,100001.41
2022-08-22T07:27:58.387Z,99999.47
2022-08-22T07:30:41.649Z,100000.56
2022-08-22T07:33:25.995Z,100005.56
2022-08-22T07:36:01.804Z,100004.72
2022-08-22T07:38:42.953Z,100002.25
2022-08-22T07:41:17.361Z,100006.41
2022-08-22T07:43:50.669Z,100008.19
2022-08-22T07:46:30.569Z,100011.69
2022-08-22T07:49:22.009Z,100008.06
2022-08-22T07:52:01.409Z,100003.91
2022-08-22T07:54:38.109Z,100012.19
2022-08-22T07:57:11.483Z,100016.59
2022-08-22T07:59:47.589Z,100011.31
2022-08-22T08:02:22.109Z,100010.25
2022-08-22T08:04:52.851Z,100013.00
2022-08-22T08:07:24.731Z,100008.59
2022-08-22T08:09:58.140Z,100014.81
2022-08-22T08:12:32.450Z,100015.50
2022-08-22T08:15:04.289Z,100011.94
2022-08-22T08:17:38.229Z,100018.84
2022-08-22T08:20:11.300Z,100014.41
2022-08-22T08:22:41.929Z,100008.31
2022-08-22T08:25:14.709Z,100006.66
2022-08-22T08:28:01.046Z,100011.94
2022-08-22T08:30:40.019Z,100015.25
2022-08-22T08:33:25.334Z,100009.63
2022-08-22T08:36:03.449Z,100013.91
2022-08-22T08:38:57.809Z,100020.97
2022-08-22T08:42:01.439Z,100019.31
2022-08-22T08:44:58.579Z,100025.50
2022-08-22T08:47:43.599Z,100033.28
2022-08-22T08:50:45.309Z,100028.13
2022-08-22T08:53:43.676Z,100028.97
2022-08-22T08:56:20.281Z,100030.91
2022-08-22T08:58:56.308Z,100033.53
2022-08-22T09:02:04.699Z,100038.81
2022-08-22T09:05:26.709Z,100034.22
2022-08-22T09:08:29.483Z,100039.50
2022-08-22T09:11:12.661Z,100040.34
2022-08-22T09:14:00.028Z,100035.09
2022-08-22T09:16:46.258Z,100037.84
2022-08-22T09:19:41.859Z,100047.28
2022-08-22T09:22:51.504Z,100054.75
2022-08-22T09:25:38.434Z,100050.22
2022-08-22T09:28:18.158Z,100055.22
2022-08-22T09:31:21.961Z,100052.19
2022-08-22T09:33:59.600Z,100060.81
2022-08-22T09:36:35.878Z,100058.06
2022-08-22T09:39:14.739Z,100064.16
2022-08-22T09:42:00.449Z,100057.50
2022-08-22T09:44:50.680Z,100048.78
2022-08-22T09:48:37.068Z,100054.63
2022-08-22T09:51:31.488Z,100055.22
2022-08-22T09:54:21.490Z,100050.56
2022-08-22T09:57:00.889Z,100052.09
2022-08-22T09:59:46.270Z,100055.69
2022-08-22T10:02:29.078Z,100058.44
2022-08-22T10:05:04.365Z,100068.56
2022-08-22T10:07:55.179Z,100062.34
2022-08-22T10:10:39.743Z,100065.94
2022-08-22T10:13:23.148Z,100063.19
2022-08-22T10:15:59.138Z,100062.47
2022-08-22T10:18:34.849Z,100064.28
2022-08-22T10:21:13.068Z,100056.81
2022-08-22T10:23:51.318Z,100069.03
2022-08-22T10:26:37.945Z,100072.09
2022-08-22T10:29:17.260Z,100066.81
2022-08-22T10:31:58.850Z,100075.44
2022-08-22T10:34:42.809Z,100070.75
2022-08-22T10:37:23.925Z,100062.84
2022-08-22T10:40:02.451Z,100072.53
2022-08-22T10:42:35.655Z,100071.56
2022-08-22T10:45:24.083Z,100071.31
2022-08-22T10:48:35.800Z,100078.69
2022-08-22T10:51:24.799Z,100072.84
2022-08-22T10:54:34.207Z,100077.84
2022-08-22T10:57:33.082Z,100085.75
2022-08-22T11:00:10.597Z,100073.88
2022-08-22T11:02:55.161Z,100074.56
2022-08-22T11:05:37.843Z,100073.88
2022-08-22T11:08:44.838Z,100075.78
2022-08-22T11:11:37.621Z,100081.03
2022-08-22T11:14:35.880Z,100070.50
2022-08-22T11:17:28.911Z,100079.13
2022-08-22T11:20:21.234Z,100076.75
2022-08-22T11:23:12.418Z,100073.41
2022-08-22T11:25:54.022Z,100074.56
2022-08-22T11:28:50.864Z,100070.25
2022-08-22T11:31:31.767Z,100070.81
2022-08-22T11:34:12.450Z,100071.69
2022-08-22T11:36:52.093Z,100068.06
2022-08-22T11:39:27.889Z,100068.06
2022-08-22T11:42:05.383Z,100069.59
2022-08-22T11:44:50.662Z,100065.16
2022-08-22T11:47:26.544Z,100070.28
2022-08-22T11:50:02.788Z,100064.47
2022-08-22T11:52:52.101Z,100063.78
2022-08-22T11:55:32.138Z,100063.63
2022-08-22T11:58:15.389Z,100066.28
2022-08-22T12:00:55.559Z,100064.09
2022-08-22T12:04:04.519Z,100059.78
2022-08-22T12:06:48.561Z,100063.41
2022-08-22T12:09:36.084Z,100061.75
2022-08-22T12:12:39.888Z,100057.03
2022-08-22T12:15:25.909Z,100050.13
2022-08-22T12:18:28.480Z,100048.44
2022-08-22T12:21:38.505Z,100055.94
2022-08-22T12:24:54.319Z,100049.44
2022-08-22T12:27:52.575Z,100058.31
2022-08-22T12:30:35.289Z,100065.22
2022-08-22T12:33:52.120Z,100064.25
2022-08-22T12:36:45.429Z,100055.41
2022-08-22T12:39:41.078Z,100063.72
2022-08-22T12:42:50.431Z,100055.16
2022-08-22T12:45:54.630Z,100056.16
2022-08-22T12:48:54.530Z,100060.47
2022-08-22T12:51:33.133Z,100051.88
2022-08-22T12:54:27.320Z,100050.88
2022-08-22T12:57:04.459Z,100049.78
2022-08-22T12:59:58.223Z,100049.41
2022-08-22T13:02:33.344Z,100046.88
2022-08-22T13:05:11.191Z,100050.06
2022-08-22T13:07:42.620Z,100055.59
2022-08-22T13:10:39.549Z,100044.25
2022-08-22T13:13:14.331Z,100054.09
2022-08-22T13:15:54.658Z,100057.84
2022-08-22T13:18:31.214Z,100051.88
2022-08-22T13:21:04.521Z,100052.56
2022-08-22T13:23:39.607Z,100053.41
2022-08-22T13:26:31.889Z,100055.88
2022-08-22T13:29:25.702Z,100048.94
2022-08-22T13:32:02.230Z,100053.13
2022-08-22T13:34:43.773Z,100053.69
2022-08-22T13:37:20.253Z,100050.78
2022-08-22T13:39:57.320Z,100043.84
2022-08-22T13:42:31.153Z,100046.88
2022-08-22T13:45:05.191Z,100047.69
2022-08-22T13:47:47.135Z,100045.06
2022-08-22T13:50:22.664Z,100054.66
2022-08-22T13:52:58.070Z,100047.03
2022-08-22T13:55:31.767Z,100047.31
2022-08-22T13:58:11.163Z,100054.38
2022-08-22T14:01:11.843Z,100051.59
2022-08-22T14:03:48.848Z,100047.97
2022-08-22T14:06:43.899Z,100046.88
2022-08-22T14:09:31.350Z,100051.19
2022-08-22T14:12:13.889Z,100051.03
2022-08-22T14:14:46.038Z,100043.84
2022-08-22T14:17:18.725Z,100036.78
2022-08-22T14:19:59.330Z,100038.31
2022-08-22T14:22:31.877Z,100043.59
2022-08-22T14:25:07.447Z,100036.91
2022-08-22T14:27:39.981Z,100028.44
2022-08-22T14:30:16.589Z,100018.31
2022-08-22T14:32:52.025Z,100020.56
2022-08-22T14:35:34.699Z,100026.38
2022-08-22T14:38:27.345Z,100018.31
2022-08-22T14:41:03.504Z,100014.41
2022-08-22T14:43:50.744Z,100016.09
2022-08-22T14:46:26.657Z,100023.84
2022-08-22T14:49:16.129Z,100014.56
2022-08-22T14:51:52.465Z,100016.50
2022-08-22T14:54:22.159Z,100026.09
2022-08-22T14:56:53.544Z,100017.59
2022-08-22T14:59:34.704Z,100018.75
2022-08-22T15:02:06.722Z,100018.31
2022-08-22T15:04:39.404Z,100026.78
2022-08-22T15:07:12.164Z,100020.41
2022-08-22T15:09:44.783Z,100034.28
2022-08-22T15:12:25.354Z,100023.88
2022-08-22T15:14:57.872Z,100027.31
2022-08-22T15:17:43.972Z,100020.41
2022-08-22T15:20:27.670Z,100027.31
2022-08-22T15:23:03.001Z,100027.31
2022-08-22T15:25:42.654Z,100033.44
2022-08-22T15:28:20.824Z,100028.03
2022-08-22T15:31:03.703Z,100023.75
2022-08-22T15:33:34.904Z,100035.25
2022-08-22T15:36:15.816Z,100027.19
2022-08-22T15:38:48.416Z,100024.41
2022-08-22T15:41:45.077Z,100017.19
2022-08-22T15:44:33.043Z,100028.19
2022-08-22T15:47:25.570Z,100022.75
2022-08-22T15:50:05.464Z,100015.66
2022-08-22T15:52:59.616Z,100014.28
2022-08-22T15:55:36.053Z,100006.66
2022-08-22T15:58:13.088Z,100004.13
2022-08-22T16:00:47.343Z,100005.81
2022-08-22T16:03:29.753Z,100000.28
2022-08-22T16:06:02.023Z,99987.75
2022-08-22T16:08:33.703Z,99990.97
2022-08-22T16:11:33.401Z,99992.34
2022-08-22T16:14:24.258Z,99997.06
2022-08-22T16:17:03.518Z,99998.59
2022-08-22T16:19:34.134Z,99994.41
2022-08-22T16:22:13.845Z,99997.19
2022-08-22T16:25:16.853Z,99993.31
2022-08-22T16:27:59.464Z,99984.16
2022-08-22T16:30:36.465Z,99990.69
2022-08-22T16:33:17.654Z,99993.59
2022-08-22T16:36:26.078Z,99986.94
2022-08-22T16:38:58.683Z,99986.94
2022-08-22T16:41:35.433Z,99989.84
2022-08-22T16:44:41.003Z,99986.38
2022-08-22T16:47:15.853Z,99981.94
2022-08-22T16:50:02.264Z,99986.09
2022-08-22T16:53:07.977Z,99988.75
2022-08-22T16:56:10.978Z,99978.34
2022-08-22T16:59:19.624Z,99978.47
2022-08-22T17:02:12.664Z,99982.09
2022-08-22T17:04:51.012Z,99985.69
2022-08-22T17:07:32.948Z,99983.03
2022-08-22T17:10:26.868Z,99976.94
2022-08-22T17:13:08.298Z,99991.09
2022-08-22T17:15:51.451Z,99985.00
2022-08-22T17:18:46.805Z,99982.50
2022-08-22T17:21:26.108Z,99988.75
2022-08-22T17:24:04.796Z,99980.84
2022-08-22T17:26:55.200Z,99973.91
2022-08-22T17:29:36.763Z,99980.28
2022-08-22T17:32:16.844Z,99976.84
2022-08-22T17:34:57.344Z,99967.09
2022-08-22T17:37:38.353Z,99967.22
2022-08-22T17:40:34.808Z,99965.47
2022-08-22T17:43:48.730Z,99969.88
2022-08-22T17:46:36.689Z,99965.59
2022-08-22T17:49:17.038Z,99965.59
2022-08-22T17:51:55.179Z,99966.41
2022-08-22T17:54:31.669Z,99959.47
2022-08-22T17:57:07.423Z,99968.22
2022-08-22T17:59:46.858Z,99971.56
2022-08-22T18:02:19.118Z,99962.81
2022-08-22T18:04:58.888Z,99970.56
2022-08-22T18:07:39.878Z,99973.09
2022-08-22T18:10:15.260Z,99992.50
2022-08-22T18:12:51.695Z,99996.13
2022-08-22T18:15:27.039Z,99984.75
2022-08-22T18:18:00.927Z,99975.16
2022-08-22T18:20:34.839Z,99989.47
2022-08-22T18:23:21.833Z,99992.09
2022-08-22T18:26:10.227Z,99991.41
2022-08-22T18:28:45.203Z,99995.03
2022-08-22T18:31:34.184Z,99990.56
2022-08-22T18:34:14.949Z,99980.16
2022-08-22T18:36:53.172Z,99984.59
2022-08-22T18:39:29.858Z,99979.47
2022-08-22T18:42:05.409Z,99985.56
2022-08-22T18:44:40.158Z,99978.63
2022-08-22T18:47:20.351Z,99975.31
2022-08-22T18:49:55.408Z,99986.69
2022-08-22T18:52:37.221Z,99984.16
2022-08-22T18:55:44.860Z,99981.53
2022-08-22T18:58:38.660Z,99984.16
2022-08-22T19:01:44.484Z,99989.59
2022-08-22T19:04:47.341Z,99991.53
2022-08-22T19:07:30.012Z,99991.41
2022-08-22T19:10:20.130Z,99998.63
2022-08-22T19:13:13.834Z,99998.75
2022-08-22T19:15:55.609Z,99994.44
2022-08-22T19:18:43.040Z,99989.31
2022-08-22T19:21:40.131Z,99988.34
2022-08-22T19:24:12.209Z,99987.66
2022-08-22T19:26:47.966Z,99990.31
2022-08-22T19:29:56.735Z,99980.88
2022-08-22T19:33:00.683Z,99986.13
2022-08-22T19:35:52.780Z,99988.91
2022-08-22T19:38:53.820Z,99984.59
2022-08-22T19:41:47.070Z,99988.06
2022-08-22T19:44:40.756Z,99988.34
2022-08-22T19:47:27.075Z,99985.00
2022-08-22T19:50:05.565Z,99988.50
2022-08-22T19:52:51.721Z,99981.53
2022-08-22T19:55:28.225Z,99979.59
2022-08-22T19:58:07.916Z,99980.16
2022-08-22T20:00:53.644Z,99976.53
2022-08-22T20:03:32.650Z,99979.19
2022-08-22T20:06:22.092Z,99968.63
2022-08-22T20:09:12.241Z,99977.53
2022-08-22T20:11:46.261Z,99975.03
2022-08-22T20:14:24.955Z,99973.25
2022-08-22T20:17:10.470Z,99983.91
2022-08-22T20:22:42.911Z,99990.44
2022-08-22T20:25:42.978Z,99999.31
2022-08-22T20:28:09.913Z,99991.53
2022-08-22T20:30:42.650Z,99986.38
2022-08-22T20:33:17.823Z,99977.53
2022-08-22T20:35:55.299Z,99964.44
2022-08-22T20:38:28.332Z,99969.63
2022-08-22T20:41:11.645Z,99962.66
2022-08-22T20:43:48.900Z,99954.75
2022-08-22T20:46:39.500Z,99958.25
2022-08-22T20:49:24.015Z,99971.50
2022-08-22T20:51:57.910Z,99966.25
2022-08-22T20:54:30.830Z,99964.44
2022-08-22T20:57:01.701Z,99955.63
2022-08-22T20:59:36.145Z,99948.63
2022-08-22T21:02:16.670Z,99952.25
2022-08-22T21:04:52.963Z,99955.84
2022-08-22T21:07:29.985Z,99952.41
2022-08-22T21:10:23.435Z,99946.25
2022-08-22T21:13:07.751Z,99941.97
2022-08-22T21:15:39.486Z,99940.31
2022-08-22T21:18:09.251Z,99942.13
2022-08-22T21:20:40.011Z,99954.47
2022-08-22T21:23:14.761Z,99950.97
2022-08-22T21:25:56.463Z,99952.13
2022-08-22T21:28:31.252Z,99949.47
2022-08-22T21:31:02.020Z,99959.16
2022-08-22T21:33:30.665Z,99957.50
2022-08-22T21:36:01.659Z,99961.94
2022-08-22T21:38:31.770Z,99966.38
2022-08-22T21:41:05.585Z,99965.69
2022-08-22T21:43:38.130Z,99965.84
2022-08-22T21:46:07.748Z,99967.59
2022-08-22T21:48:40.919Z,99969.41
2022-08-22T21:51:33.275Z,99970.41
2022-08-22T21:54:31.560Z,99974.97
2022-08-22T21:57:01.750Z,99979.41
2022-08-22T21:59:50.809Z,99970.66
2022-08-22T22:02:37.397Z,99971.50
2022-08-22T22:05:09.922Z,99969.00
2022-08-22T22:07:41.490Z,99964.69
2022-08-22T22:10:14.825Z,99963.03
2022-08-22T22:12:44.675Z,99973.56
2022-08-22T22:15:16.380Z,99970.13
2022-08-22T22:17:44.952Z,99964.97
2022-08-22T22:20:15.964Z,99967.75
2022-08-22T22:22:46.276Z,99974.00
2022-08-22T22:25:38.957Z,99981.03
2022-08-22T22:28:15.439Z,99978.28
2022-08-22T22:30:45.190Z,99980.09
2022-08-22T22:33:13.909Z,99982.84
2022-08-22T22:35:42.774Z,99982.16
2022-08-22T22:38:13.934Z,99977.03
2022-08-22T22:40:44.094Z,99981.56
2022-08-22T22:43:13.068Z,99980.63
2022-08-22T22:45:41.839Z,99980.91
2022-08-22T22:48:10.669Z,99987.00
2022-08-22T22:50:44.280Z,99986.28
2022-08-22T22:53:19.867Z,99983.81
2022-08-22T22:56:00.266Z,99979.50
2022-08-22T22:58:29.938Z,99984.91
2022-08-22T23:00:58.991Z,99977.16
2022-08-22T23:03:27.818Z,99974.63
2022-08-22T23:05:56.388Z,99984.19
2022-08-22T23:08:24.969Z,99983.50
2022-08-22T23:10:55.039Z,99979.34
2022-08-22T23:13:24.110Z,99984.59
2022-08-22T23:15:52.689Z,99982.94
2022-08-22T23:18:21.259Z,99971.56
2022-08-22T23:20:58.948Z,99974.34
2022-08-22T23:23:27.529Z,99972.69
2022-08-22T23:25:57.604Z,99964.78
2022-08-22T23:28:26.199Z,99971.00
2022-08-22T23:30:55.089Z,99969.34
2022-08-22T23:33:23.639Z,99971.25
2022-08-22T23:35:53.480Z,99972.09
2022-08-22T23:38:26.799Z,99969.59
2022-08-22T23:40:56.919Z,99976.69
2022-08-22T23:43:25.468Z,99975.13
2022-08-22T23:45:53.969Z,99985.66
2022-08-22T23:48:22.469Z,99977.06
2022-08-22T23:50:50.974Z,99978.03
2022-08-22T23:53:19.509Z,99981.66
2022-08-22T23:55:48.048Z,99972.06
2022-08-22T23:58:18.690Z,99977.31
